createdAt,value
2023-01-29T00:00:00.947Z,53.60
2023-01-29T00:02:29.377Z,52.47
2023-01-29T00:05:10.052Z,47.33
2023-01-29T00:07:45.329Z,50.70
2023-01-29T00:10:13.919Z,52.90
2023-01-29T00:12:42.442Z,47.37
2023-01-29T00:15:11.165Z,54.50
2023-01-29T00:17:39.580Z,48.57
2023-01-29T00:20:10.024Z,50.70
2023-01-29T00:22:38.490Z,47.40
2023-01-29T00:25:07.388Z,49.10
2023-01-29T00:27:35.851Z,51.60
2023-01-29T00:30:12.111Z,53.37
2023-01-29T00:32:40.806Z,53.87
2023-01-29T00:35:11.440Z,48.93
2023-01-29T00:37:39.916Z,48.10
2023-01-29T00:40:09.284Z,48.50
2023-01-29T00:42:55.448Z,50.20
2023-01-29T00:45:23.885Z,50.50
2023-01-29T00:47:52.297Z,53.17
2023-01-29T00:50:22.327Z,54.00
2023-01-29T00:52:51.854Z,50.27
2023-01-29T00:55:20.664Z,51.47
2023-01-29T00:57:49.413Z,49.83
2023-01-29T01:00:19.486Z,50.83
2023-01-29T01:03:05.632Z,48.80
2023-01-29T01:05:36.873Z,48.30
2023-01-29T01:08:25.556Z,47.27
2023-01-29T01:10:59.467Z,52.20
2023-01-29T01:13:28.041Z,49.63
2023-01-29T01:15:56.720Z,49.60
2023-01-29T01:18:25.202Z,49.07
2023-01-29T01:20:59.709Z,50.80
2023-01-29T01:23:28.417Z,50.23
2023-01-29T01:25:56.866Z,54.50
2023-01-29T01:28:25.342Z,53.73
2023-01-29T01:30:53.838Z,49.07
2023-01-29T01:33:22.278Z,55.17
2023-01-29T01:35:50.729Z,52.20
2023-01-29T01:38:20.503Z,51.20
2023-01-29T01:40:48.925Z,51.97
2023-01-29T01:43:17.379Z,57.53
2023-01-29T01:45:46.797Z,54.80
2023-01-29T01:48:17.623Z,54.60
2023-01-29T01:50:48.431Z,52.13
2023-01-29T01:53:18.544Z,54.27
2023-01-29T01:55:50.574Z,52.50
2023-01-29T01:58:21.681Z,54.17
2023-01-29T02:00:50.333Z,53.57
2023-01-29T02:03:37.097Z,55.73
2023-01-29T02:06:23.026Z,51.27
2023-01-29T02:09:12.784Z,52.83
2023-01-29T02:11:42.653Z,53.83
2023-01-29T02:14:11.311Z,53.93
2023-01-29T02:16:40.139Z,50.03
2023-01-29T02:19:12.775Z,52.93
2023-01-29T02:21:52.784Z,57.30
2023-01-29T02:24:46.019Z,51.63
2023-01-29T02:27:17.293Z,48.87
2023-01-29T02:29:55.499Z,54.17
2023-01-29T02:32:28.078Z,56.00
2023-01-29T02:35:19.108Z,54.10
2023-01-29T02:37:54.489Z,56.50
2023-01-29T02:40:28.858Z,55.10
2023-01-29T02:43:02.909Z,57.97
2023-01-29T02:45:34.900Z,56.27
2023-01-29T02:48:04.298Z,56.07
2023-01-29T02:50:36.448Z,59.07
2023-01-29T02:53:08.434Z,54.93
2023-01-29T02:55:40.798Z,53.80
2023-01-29T02:58:12.187Z,52.87
2023-01-29T03:00:42.764Z,58.37
2023-01-29T03:03:14.848Z,57.83
2023-01-29T03:05:51.092Z,63.03
2023-01-29T03:08:22.504Z,59.40
2023-01-29T03:10:53.182Z,55.77
2023-01-29T03:13:23.659Z,59.07
2023-01-29T03:16:01.463Z,60.07
2023-01-29T03:18:32.232Z,57.27
2023-01-29T03:21:04.079Z,57.17
2023-01-29T03:23:52.319Z,53.87
2023-01-29T03:26:39.864Z,57.30
2023-01-29T03:29:26.312Z,57.83
2023-01-29T03:32:07.492Z,51.40
2023-01-29T03:34:40.838Z,54.43
2023-01-29T03:37:10.973Z,52.50
2023-01-29T03:39:39.389Z,52.43
2023-01-29T03:42:14.399Z,54.57
2023-01-29T03:44:49.477Z,52.67
2023-01-29T03:47:22.876Z,54.30
2023-01-29T03:49:58.205Z,55.90
2023-01-29T03:52:28.537Z,54.63
2023-01-29T03:55:01.417Z,50.43
2023-01-29T03:57:33.670Z,54.00
2023-01-29T04:00:05.362Z,55.10
2023-01-29T04:02:38.299Z,50.53
2023-01-29T04:05:08.388Z,50.10
2023-01-29T04:07:37.584Z,54.10
2023-01-29T04:10:09.518Z,58.03
2023-01-29T04:12:39.701Z,57.23
2023-01-29T04:15:11.228Z,58.67
2023-01-29T04:17:42.259Z,54.53
2023-01-29T04:20:11.465Z,53.23
2023-01-29T04:22:41.599Z,56.13
2023-01-29T04:25:16.003Z,57.00
2023-01-29T04:27:47.565Z,51.73
2023-01-29T04:30:23.562Z,57.27
2023-01-29T04:32:59.622Z,51.87
2023-01-29T04:35:31.604Z,58.43
2023-01-29T04:38:06.933Z,57.23
2023-01-29T04:40:39.100Z,50.60
2023-01-29T04:43:10.039Z,60.17
2023-01-29T04:45:45.138Z,54.93
2023-01-29T04:48:20.408Z,56.30
2023-01-29T04:50:51.991Z,55.00
2023-01-29T04:53:25.617Z,63.47
2023-01-29T04:55:57.055Z,56.50
2023-01-29T04:58:28.627Z,57.53
2023-01-29T05:00:57.030Z,52.93
2023-01-29T05:03:28.465Z,56.10
2023-01-29T05:05:58.059Z,54.57
2023-01-29T05:08:27.334Z,54.30
2023-01-29T05:10:56.864Z,56.57
2023-01-29T05:13:25.713Z,56.40
2023-01-29T05:15:56.237Z,56.53
2023-01-29T05:18:24.703Z,50.10
2023-01-29T05:20:55.463Z,53.97
2023-01-29T05:23:25.514Z,56.90
2023-01-29T05:25:54.051Z,53.40
2023-01-29T05:28:21.669Z,58.93
2023-01-29T05:30:51.174Z,57.37
2023-01-29T05:33:20.766Z,56.83
2023-01-29T05:35:49.800Z,57.43
2023-01-29T05:38:20.028Z,53.73
2023-01-29T05:40:48.795Z,58.97
2023-01-29T05:43:18.107Z,57.83
2023-01-29T05:45:53.366Z,61.83
2023-01-29T05:48:21.798Z,59.80
2023-01-29T05:50:50.490Z,58.57
2023-01-29T05:53:20.263Z,55.87
2023-01-29T05:55:49.075Z,55.83
2023-01-29T05:58:19.596Z,56.50
2023-01-29T06:00:48.213Z,60.53
2023-01-29T06:03:17.174Z,61.47
2023-01-29T06:05:45.666Z,55.40
2023-01-29T06:08:14.323Z,56.47
2023-01-29T06:10:44.185Z,56.77
2023-01-29T06:13:12.596Z,55.80
2023-01-29T06:15:41.783Z,60.57
2023-01-29T06:18:10.220Z,58.60
2023-01-29T06:20:38.842Z,58.33
2023-01-29T06:23:07.275Z,60.57
2023-01-29T06:25:35.729Z,56.00
2023-01-29T06:28:05.644Z,57.70
2023-01-29T06:30:34.173Z,52.63
2023-01-29T06:33:02.849Z,50.83
2023-01-29T06:35:31.349Z,50.80
2023-01-29T06:37:59.763Z,56.57
2023-01-29T06:40:28.202Z,52.27
2023-01-29T06:42:56.644Z,56.37
2023-01-29T06:45:26.598Z,55.17
2023-01-29T06:47:55.040Z,58.07
2023-01-29T06:50:23.504Z,58.23
2023-01-29T06:52:51.919Z,51.50
2023-01-29T06:55:20.407Z,55.10
2023-01-29T06:57:48.842Z,54.57
2023-01-29T07:00:18.103Z,49.93
2023-01-29T07:02:50.643Z,55.77
2023-01-29T07:05:19.368Z,52.83
2023-01-29T07:07:47.825Z,62.53
2023-01-29T07:10:16.615Z,59.37
2023-01-29T07:12:45.377Z,55.83
2023-01-29T07:15:13.797Z,57.40
2023-01-29T07:17:42.368Z,58.30
2023-01-29T07:20:13.183Z,55.43
2023-01-29T07:22:41.748Z,57.87
2023-01-29T07:25:10.845Z,60.10
2023-01-29T07:27:39.311Z,53.60
2023-01-29T07:30:08.457Z,58.57
2023-01-29T07:32:36.938Z,53.47
2023-01-29T07:35:05.552Z,51.77
2023-01-29T07:37:35.362Z,61.53
2023-01-29T07:40:05.185Z,61.17
2023-01-29T07:42:33.621Z,55.47
2023-01-29T07:45:02.047Z,49.47
2023-01-29T07:47:30.492Z,58.27
2023-01-29T07:49:59.039Z,57.97
2023-01-29T07:52:27.463Z,53.27
2023-01-29T07:54:57.245Z,55.73
2023-01-29T07:57:25.911Z,55.23
2023-01-29T07:59:54.333Z,61.23
2023-01-29T08:02:22.873Z,61.37
2023-01-29T08:04:51.294Z,56.10
2023-01-29T08:07:19.735Z,54.17
2023-01-29T08:09:48.278Z,60.77
2023-01-29T08:12:18.091Z,59.00
2023-01-29T08:14:46.894Z,57.40
2023-01-29T08:17:15.456Z,56.80
2023-01-29T08:19:43.892Z,61.67
2023-01-29T08:22:12.314Z,58.10
2023-01-29T08:24:53.441Z,55.90
2023-01-29T08:27:30.012Z,56.63
2023-01-29T08:29:58.416Z,56.43
2023-01-29T08:32:26.949Z,58.00
2023-01-29T08:34:55.346Z,57.07
2023-01-29T08:37:23.774Z,53.00
2023-01-29T08:39:52.182Z,55.97
2023-01-29T08:42:20.609Z,58.00
2023-01-29T08:44:50.476Z,59.23
2023-01-29T08:47:18.930Z,57.33
2023-01-29T08:49:47.630Z,58.07
2023-01-29T08:52:16.090Z,59.47
2023-01-29T08:54:45.788Z,61.30
2023-01-29T08:57:14.424Z,66.07
2023-01-29T08:59:42.982Z,56.77
2023-01-29T09:02:13.574Z,56.40
2023-01-29T09:04:42.058Z,59.97
2023-01-29T09:07:10.512Z,56.73
2023-01-29T09:09:39.111Z,57.03
2023-01-29T09:12:10.377Z,56.43
2023-01-29T09:14:38.995Z,57.30
2023-01-29T09:17:07.400Z,55.50
2023-01-29T09:19:37.293Z,58.77
2023-01-29T09:22:05.771Z,58.17
2023-01-29T09:24:35.059Z,58.97
2023-01-29T09:27:04.036Z,56.63
2023-01-29T09:29:34.766Z,59.90
2023-01-29T09:32:04.306Z,54.90
2023-01-29T09:34:32.799Z,53.37
2023-01-29T09:37:02.763Z,57.93
2023-01-29T09:39:31.313Z,56.33
2023-01-29T09:42:02.161Z,57.33
2023-01-29T09:44:35.572Z,55.57
2023-01-29T09:47:07.342Z,56.37
2023-01-29T09:49:39.500Z,56.20
2023-01-29T09:52:12.474Z,58.60
2023-01-29T09:54:47.460Z,53.13
2023-01-29T09:57:19.412Z,55.33
2023-01-29T09:59:47.909Z,58.57
2023-01-29T10:02:23.838Z,52.90
2023-01-29T10:05:09.034Z,57.17
2023-01-29T10:07:48.449Z,51.33
2023-01-29T10:10:21.006Z,58.57
2023-01-29T10:13:02.923Z,58.03
2023-01-29T10:15:40.381Z,57.00
2023-01-29T10:18:18.259Z,51.40
2023-01-29T10:20:54.204Z,57.77
2023-01-29T10:23:29.017Z,53.97
2023-01-29T10:25:57.729Z,52.50
2023-01-29T10:28:29.642Z,53.27
2023-01-29T10:30:59.872Z,55.27
2023-01-29T10:33:36.159Z,55.60
2023-01-29T10:36:14.056Z,47.10
2023-01-29T10:38:46.303Z,53.10
2023-01-29T10:41:19.995Z,54.23
2023-01-29T10:43:53.435Z,54.20
2023-01-29T10:46:25.579Z,50.50
2023-01-29T10:49:01.106Z,51.70
2023-01-29T10:51:35.332Z,57.43
2023-01-29T10:54:11.546Z,55.50
2023-01-29T10:56:45.148Z,53.53
2023-01-29T10:59:21.407Z,53.07
2023-01-29T11:01:49.830Z,51.03
2023-01-29T11:04:18.489Z,50.50
2023-01-29T11:06:47.010Z,51.73
2023-01-29T11:09:20.873Z,58.90
2023-01-29T11:11:50.621Z,50.80
2023-01-29T11:14:23.404Z,51.97
2023-01-29T11:16:51.911Z,50.80
2023-01-29T11:19:20.824Z,48.80
2023-01-29T11:21:53.685Z,51.70
2023-01-29T11:24:23.541Z,53.47
2023-01-29T11:26:52.556Z,51.93
2023-01-29T11:29:33.946Z,56.87
2023-01-29T11:32:04.171Z,47.70
2023-01-29T11:34:32.618Z,55.30
2023-01-29T11:37:02.316Z,51.57
2023-01-29T11:39:32.557Z,54.10
2023-01-29T11:42:02.818Z,54.13
2023-01-29T11:44:34.686Z,54.90
2023-01-29T11:47:12.792Z,50.87
2023-01-29T11:49:42.498Z,53.77
2023-01-29T11:52:12.035Z,52.10
2023-01-29T11:54:46.297Z,49.70
2023-01-29T11:57:25.362Z,55.17
2023-01-29T11:59:54.805Z,54.07
2023-01-29T12:02:28.178Z,51.60
2023-01-29T12:04:57.396Z,49.87
2023-01-29T12:07:25.863Z,51.23
2023-01-29T12:09:56.610Z,54.17
2023-01-29T12:12:32.413Z,50.57
2023-01-29T12:15:19.458Z,55.13
2023-01-29T12:17:52.761Z,52.23
2023-01-29T12:20:24.933Z,55.90
2023-01-29T12:22:56.033Z,53.63
2023-01-29T12:25:27.910Z,50.53
2023-01-29T12:27:59.943Z,49.53
2023-01-29T12:30:31.624Z,51.83
2023-01-29T12:33:03.005Z,50.17
2023-01-29T12:35:33.526Z,45.97
2023-01-29T12:38:04.384Z,47.97
2023-01-29T12:40:36.856Z,50.80
2023-01-29T12:43:07.797Z,49.03
2023-01-29T12:45:37.535Z,49.30
2023-01-29T12:48:08.211Z,44.17
2023-01-29T12:50:37.809Z,51.10
2023-01-29T12:53:09.291Z,46.83
2023-01-29T12:55:41.436Z,46.97
2023-01-29T12:58:12.590Z,48.07
2023-01-29T13:00:42.689Z,46.43
2023-01-29T13:03:17.137Z,48.43
2023-01-29T13:05:50.139Z,44.97
2023-01-29T13:08:20.797Z,46.10
2023-01-29T13:10:51.617Z,47.63
2023-01-29T13:13:24.322Z,47.77
2023-01-29T13:15:53.540Z,47.10
2023-01-29T13:18:49.307Z,48.83
2023-01-29T13:21:19.322Z,46.43
2023-01-29T13:23:49.674Z,42.67
2023-01-29T13:26:21.035Z,46.03
2023-01-29T13:28:49.990Z,43.27
2023-01-29T13:31:28.133Z,44.63
2023-01-29T13:34:01.099Z,47.33
2023-01-29T13:36:30.361Z,49.50
2023-01-29T13:39:02.299Z,45.77
2023-01-29T13:41:36.612Z,43.53
2023-01-29T13:44:07.398Z,50.27
2023-01-29T13:46:35.869Z,47.43
2023-01-29T13:49:05.168Z,46.80
2023-01-29T13:51:36.571Z,50.80
2023-01-29T13:54:07.622Z,46.20
2023-01-29T13:56:51.640Z,46.07
2023-01-29T13:59:24.128Z,44.63
2023-01-29T14:02:06.016Z,46.87
2023-01-29T14:04:34.489Z,47.70
2023-01-29T14:07:04.218Z,46.80
2023-01-29T14:09:36.808Z,44.33
2023-01-29T14:12:08.353Z,47.70
2023-01-29T14:14:53.092Z,43.97
2023-01-29T14:17:22.057Z,46.40
2023-01-29T14:19:51.226Z,46.43
2023-01-29T14:22:22.515Z,46.83
2023-01-29T14:24:51.500Z,48.03
2023-01-29T14:27:23.516Z,46.60
2023-01-29T14:29:57.569Z,50.23
2023-01-29T14:32:27.060Z,39.00
2023-01-29T14:34:58.583Z,48.93
2023-01-29T14:37:28.971Z,46.80
2023-01-29T14:39:58.695Z,46.37
2023-01-29T14:42:30.563Z,45.47
2023-01-29T14:45:00.239Z,51.33
2023-01-29T14:47:55.646Z,42.93
2023-01-29T14:50:45.277Z,45.90
2023-01-29T14:53:15.662Z,45.23
2023-01-29T14:55:46.100Z,46.43
2023-01-29T14:58:17.732Z,41.07
2023-01-29T15:00:47.634Z,45.13
2023-01-29T15:03:20.926Z,44.30
2023-01-29T15:05:50.920Z,45.37
2023-01-29T15:08:23.839Z,45.40
2023-01-29T15:11:14.393Z,45.63
2023-01-29T15:13:48.088Z,44.20
2023-01-29T15:16:19.504Z,41.77
2023-01-29T15:18:49.740Z,42.23
2023-01-29T15:21:19.161Z,38.40
2023-01-29T15:23:48.831Z,41.93
2023-01-29T15:26:20.522Z,40.23
2023-01-29T15:29:03.367Z,36.83
2023-01-29T15:31:32.703Z,29.30
2023-01-29T15:34:03.894Z,35.33
2023-01-29T15:36:33.237Z,35.33
2023-01-29T15:39:20.135Z,39.83
2023-01-29T15:41:48.938Z,35.80
2023-01-29T15:44:20.211Z,34.50
2023-01-29T15:46:51.209Z,34.17
2023-01-29T15:49:21.501Z,34.73
2023-01-29T15:51:50.606Z,31.53
2023-01-29T15:54:19.297Z,30.37
2023-01-29T15:56:50.296Z,32.77
2023-01-29T15:59:21.517Z,33.70
2023-01-29T16:01:49.967Z,38.23
2023-01-29T16:04:20.710Z,38.27
2023-01-29T16:06:50.801Z,32.50
2023-01-29T16:09:20.623Z,33.00
2023-01-29T16:11:50.496Z,31.30
2023-01-29T16:14:28.515Z,31.07
2023-01-29T16:16:57.194Z,32.47
2023-01-29T16:19:26.702Z,33.30
2023-01-29T16:21:58.076Z,35.60
2023-01-29T16:24:26.902Z,29.47
2023-01-29T16:26:59.663Z,35.33
2023-01-29T16:29:33.365Z,30.47
2023-01-29T16:32:03.183Z,28.73
2023-01-29T16:34:34.649Z,31.07
2023-01-29T16:37:03.794Z,30.07
2023-01-29T16:39:34.386Z,32.57
2023-01-29T16:42:21.160Z,32.87
2023-01-29T16:44:53.847Z,31.43
2023-01-29T16:47:25.246Z,31.43
2023-01-29T16:49:54.983Z,34.53
2023-01-29T16:52:25.462Z,35.00
2023-01-29T16:54:53.997Z,32.93
2023-01-29T16:57:24.777Z,30.90
2023-01-29T16:59:57.981Z,32.10
2023-01-29T17:02:28.224Z,30.53
2023-01-29T17:04:59.457Z,32.47
2023-01-29T17:07:28.295Z,33.90
2023-01-29T17:09:58.619Z,35.50
2023-01-29T17:12:27.910Z,33.93
2023-01-29T17:14:58.996Z,29.30
2023-01-29T17:17:31.338Z,33.97
2023-01-29T17:20:00.248Z,37.37
2023-01-29T17:22:28.831Z,33.33
2023-01-29T17:24:57.272Z,35.93
2023-01-29T17:27:25.729Z,31.73
2023-01-29T17:29:54.276Z,34.83
2023-01-29T17:32:24.044Z,34.47
2023-01-29T17:34:52.777Z,35.53
2023-01-29T17:37:21.244Z,34.17
2023-01-29T17:39:52.649Z,34.73
2023-01-29T17:42:23.744Z,34.97
2023-01-29T17:44:52.166Z,38.43
2023-01-29T17:47:20.594Z,34.93
2023-01-29T17:49:51.035Z,34.73
2023-01-29T17:52:19.507Z,35.47
2023-01-29T17:54:47.943Z,37.57
2023-01-29T17:57:17.371Z,34.30
2023-01-29T17:59:45.842Z,37.23
2023-01-29T18:02:29.622Z,34.70
2023-01-29T18:04:59.737Z,33.50
2023-01-29T18:07:28.133Z,37.17
2023-01-29T18:09:56.542Z,36.63
2023-01-29T18:12:25.002Z,34.83
2023-01-29T18:14:53.388Z,35.10
2023-01-29T18:17:23.045Z,35.37
2023-01-29T18:19:51.505Z,37.70
2023-01-29T18:22:21.407Z,38.83
2023-01-29T18:24:49.806Z,36.53
2023-01-29T18:27:18.279Z,32.37
2023-01-29T18:29:48.798Z,36.00
2023-01-29T18:32:17.226Z,35.50
2023-01-29T18:34:45.643Z,33.60
2023-01-29T18:37:14.081Z,35.23
2023-01-29T18:39:43.879Z,35.87
2023-01-29T18:42:15.416Z,35.07
2023-01-29T18:44:43.845Z,34.93
2023-01-29T18:47:12.339Z,37.27
2023-01-29T18:49:40.749Z,35.70
2023-01-29T18:52:09.480Z,36.43
2023-01-29T18:54:37.922Z,36.20
2023-01-29T18:57:14.372Z,34.33
2023-01-29T18:59:56.200Z,36.30
2023-01-29T19:02:24.837Z,36.97
2023-01-29T19:04:53.490Z,36.07
2023-01-29T19:07:21.939Z,39.00
2023-01-29T19:09:50.520Z,33.33
2023-01-29T19:12:20.337Z,36.00
2023-01-29T19:14:48.731Z,36.03
2023-01-29T19:17:17.336Z,34.23
2023-01-29T19:19:45.791Z,33.50
2023-01-29T19:22:14.245Z,37.90
2023-01-29T19:24:42.674Z,35.70
2023-01-29T19:27:11.669Z,33.37
2023-01-29T19:29:41.504Z,37.30
2023-01-29T19:32:09.998Z,37.27
2023-01-29T19:34:38.427Z,37.67
2023-01-29T19:37:06.853Z,36.33
2023-01-29T19:39:35.254Z,37.13
2023-01-29T19:42:03.705Z,35.57
2023-01-29T19:44:32.103Z,39.33
2023-01-29T19:47:02.187Z,35.13
2023-01-29T19:49:31.074Z,31.40
2023-01-29T19:52:00.993Z,31.63
2023-01-29T19:54:30.266Z,34.13
2023-01-29T19:56:58.849Z,38.13
2023-01-29T19:59:27.305Z,34.93
2023-01-29T20:01:55.864Z,33.03
2023-01-29T20:04:26.746Z,34.63
2023-01-29T20:06:55.214Z,32.77
2023-01-29T20:09:23.640Z,32.00
2023-01-29T20:11:52.114Z,33.60
2023-01-29T20:14:20.614Z,32.13
2023-01-29T20:16:49.049Z,36.67
2023-01-29T20:19:17.936Z,36.17
2023-01-29T20:21:49.881Z,40.90
2023-01-29T20:24:18.465Z,34.90
2023-01-29T20:26:46.970Z,32.20
2023-01-29T20:29:15.529Z,37.97
2023-01-29T20:31:44.295Z,33.47
2023-01-29T20:34:12.863Z,31.63
2023-01-29T20:36:41.380Z,34.53
2023-01-29T20:39:11.174Z,37.27
2023-01-29T20:41:41.660Z,34.00
2023-01-29T20:44:10.174Z,33.73
2023-01-29T20:46:38.783Z,37.00
2023-01-29T20:49:08.072Z,34.10
2023-01-29T20:51:36.869Z,35.53
2023-01-29T20:54:05.423Z,30.73
2023-01-29T20:56:36.676Z,32.77
2023-01-29T20:59:08.333Z,29.20
2023-01-29T21:01:36.789Z,33.10
2023-01-29T21:04:05.255Z,36.03
2023-01-29T21:06:33.727Z,36.97
2023-01-29T21:09:02.179Z,35.70
2023-01-29T21:11:31.832Z,35.30
2023-01-29T21:14:02.103Z,37.57
2023-01-29T21:16:30.666Z,35.37
2023-01-29T21:18:59.299Z,35.17
2023-01-29T21:21:27.974Z,35.20
2023-01-29T21:23:58.187Z,35.20
2023-01-29T21:26:26.772Z,36.33
2023-01-29T21:28:55.284Z,37.87
2023-01-29T21:31:25.149Z,33.30
2023-01-29T21:33:53.620Z,35.97
2023-01-29T21:36:22.042Z,31.37
2023-01-29T21:38:50.486Z,33.37
2023-01-29T21:41:18.965Z,33.00
2023-01-29T21:43:46.400Z,37.53
2023-01-29T21:46:16.173Z,34.53
2023-01-29T21:48:46.020Z,40.43
2023-01-29T21:51:14.435Z,36.37
2023-01-29T21:53:43.329Z,37.07
2023-01-29T21:56:12.056Z,34.87
2023-01-29T21:58:40.697Z,37.07
2023-01-29T22:01:17.934Z,31.00
2023-01-29T22:03:59.190Z,35.73
2023-01-29T22:06:28.281Z,36.10
2023-01-29T22:08:56.742Z,33.17
2023-01-29T22:11:25.320Z,36.73
2023-01-29T22:13:53.811Z,35.40
2023-01-29T22:16:22.250Z,35.53
2023-01-29T22:18:51.268Z,38.50
2023-01-29T22:21:21.086Z,38.13
2023-01-29T22:23:50.432Z,33.63
2023-01-29T22:26:19.363Z,39.27
2023-01-29T22:28:48.063Z,35.93
2023-01-29T22:31:16.517Z,38.53
2023-01-29T22:33:45.291Z,39.27
2023-01-29T22:36:13.714Z,38.93
2023-01-29T22:38:45.230Z,37.13
2023-01-29T22:41:13.763Z,38.63
2023-01-29T22:43:43.936Z,39.37
2023-01-29T22:46:12.845Z,39.53
2023-01-29T22:48:41.330Z,35.37
2023-01-29T22:51:13.890Z,40.10
2023-01-29T22:53:43.233Z,35.50
2023-01-29T22:56:13.358Z,39.10
2023-01-29T22:58:42.278Z,40.33
2023-01-29T23:01:10.789Z,38.10
2023-01-29T23:03:39.236Z,43.67
2023-01-29T23:06:07.707Z,44.43
2023-01-29T23:08:36.193Z,48.13
2023-01-29T23:11:15.051Z,43.80
2023-01-29T23:13:46.327Z,43.43
2023-01-29T23:16:14.829Z,46.30
2023-01-29T23:18:43.581Z,44.30
2023-01-29T23:21:12.647Z,49.03
2023-01-29T23:23:44.681Z,43.77
2023-01-29T23:26:28.294Z,52.83
2023-01-29T23:28:58.354Z,48.93
2023-01-29T23:31:27.098Z,47.13
2023-01-29T23:33:55.568Z,46.60
2023-01-29T23:36:24.121Z,48.43
2023-01-29T23:38:52.584Z,49.33
2023-01-29T23:41:21.251Z,42.93
2023-01-29T23:43:49.973Z,45.93
2023-01-29T23:46:19.783Z,47.40
2023-01-29T23:48:48.259Z,44.70
2023-01-29T23:51:16.728Z,52.63
2023-01-29T23:53:45.178Z,48.90
2023-01-29T23:56:13.610Z,46.37
2023-01-29T23:58:42.016Z,43.03
